Time;durP1;ratioP1;P1;durP2;ratioP2;P2;SDS_P1;SDS_P2;PMS_P1;PMS_P2;Temp;Humidity;BMP_temperature;BMP_pressure;BME280_temperature;BME280_humidity;BME280_pressure;Samples;Min_cycle;Max_cycle;Signal;HPM_P1;HPM_P2
2020/12/06 00:01:22;;;;;;;16.77;10.55;;;;;;;4.17;100.00;100272.09;5092289;28;20111;-65
2020/12/06 00:03:48;;;;;;;15.07;10.20;;;;;;;4.18;100.00;100281.84;5091874;28;20071;-64
2020/12/06 00:06:17;;;;;;;19.75;10.57;;;;;;;4.17;100.00;100280.19;5091979;28;20048;-68
2020/12/06 00:08:43;;;;;;;19.40;10.70;;;;;;;4.16;100.00;100276.63;5091954;28;20047;-64
2020/12/06 00:11:08;;;;;;;18.10;12.10;;;;;;;4.14;100.00;100286.00;5091860;28;20044;-64
2020/12/06 00:13:34;;;;;;;21.05;11.63;;;;;;;4.12;100.00;100279.97;5090557;28;20032;-68
2020/12/06 00:15:59;;;;;;;19.02;10.60;;;;;;;4.12;100.00;100297.03;5092072;28;20044;-64
2020/12/06 00:18:25;;;;;;;18.10;11.18;;;;;;;4.10;100.00;100292.88;5090487;28;20047;-63
2020/12/06 00:20:51;;;;;;;19.75;11.63;;;;;;;4.06;100.00;100291.66;5091740;28;20093;-65
2020/12/06 00:23:20;;;;;;;20.00;11.65;;;;;;;4.02;100.00;100282.31;5091483;28;20068;-67
2020/12/06 00:25:50;;;;;;;21.13;11.45;;;;;;;3.99;100.00;100290.84;5091821;28;20048;-66
2020/12/06 00:28:16;;;;;;;19.40;11.25;;;;;;;3.98;100.00;100289.16;5091593;28;20438;-69
2020/12/06 00:30:42;;;;;;;20.92;11.80;;;;;;;3.98;100.00;100294.56;5091675;28;20131;-68
2020/12/06 00:33:08;;;;;;;16.77;11.95;;;;;;;3.98;100.00;100305.38;5091613;28;20122;-65
2020/12/06 00:35:34;;;;;;;20.23;13.20;;;;;;;3.98;100.00;100299.97;5091794;28;20599;-68
2020/12/06 00:37:59;;;;;;;18.77;12.18;;;;;;;3.97;100.00;100298.31;5091431;28;20040;-68
2020/12/06 00:40:25;;;;;;;22.13;11.40;;;;;;;3.96;100.00;100302.06;5091583;28;20040;-65
2020/12/06 00:42:50;;;;;;;18.63;10.90;;;;;;;3.96;100.00;100312.88;5091020;28;20050;-66
2020/12/06 00:45:16;;;;;;;20.73;11.95;;;;;;;3.93;100.00;100306.03;5091558;28;20047;-70
2020/12/06 00:47:42;;;;;;;17.65;11.68;;;;;;;3.92;100.00;100299.78;5091328;28;20044;-67
2020/12/06 00:50:08;;;;;;;17.65;11.32;;;;;;;3.90;100.00;100310.00;5091415;28;20048;-65
2020/12/06 00:52:33;;;;;;;20.90;11.95;;;;;;;3.88;100.00;100311.25;5089976;28;20050;-66
2020/12/06 00:54:59;;;;;;;22.30;12.77;;;;;;;3.86;100.00;100319.56;5091311;28;20036;-65
2020/12/06 00:57:25;;;;;;;16.58;12.20;;;;;;;3.86;100.00;100316.03;5089850;28;20036;-66
2020/12/06 00:59:50;;;;;;;21.67;12.02;;;;;;;3.84;100.00;100320.81;5091539;28;20039;-67
2020/12/06 01:02:16;;;;;;;22.20;12.68;;;;;;;3.81;100.00;100319.34;5091005;28;20032;-65
2020/12/06 01:04:44;;;;;;;16.63;11.13;;;;;;;3.82;100.00;100328.31;5091239;28;20071;-65
2020/12/06 01:07:09;;;;;;;17.88;11.60;;;;;;;3.82;100.00;100329.13;5091102;28;20452;-67
2020/12/06 01:09:35;;;;;;;17.65;11.10;;;;;;;3.82;100.00;100323.72;5089619;28;20123;-66
2020/12/06 01:12:01;;;;;;;15.13;11.68;;;;;;;3.80;100.00;100325.78;5090993;28;20142;-64
2020/12/06 01:14:26;;;;;;;23.33;11.35;;;;;;;3.79;100.00;100334.09;5091072;28;20043;-65
2020/12/06 01:16:52;;;;;;;19.13;11.60;;;;;;;3.78;100.00;100327.03;5090926;28;20067;-66
2020/12/06 01:19:18;;;;;;;22.05;12.02;;;;;;;3.74;100.00;100326.63;5090954;28;20051;-68
2020/12/06 01:22:02;;;;;;;15.60;11.65;;;;;;;3.69;100.00;100321.06;5091011;28;20036;-66
2020/12/06 01:24:27;;;;;;;24.98;12.40;;;;;;;3.66;100.00;100326.88;5090935;28;20061;-68
2020/12/06 01:26:53;;;;;;;17.80;12.48;;;;;;;3.62;100.00;100323.75;5090682;28;20131;-67
2020/12/06 01:29:19;;;;;;;23.45;11.80;;;;;;;3.61;100.00;100321.25;5091001;28;20101;-66
2020/12/06 01:31:46;;;;;;;19.05;11.75;;;;;;;3.59;100.00;100323.34;5091043;28;20145;-65
2020/12/06 01:34:12;;;;;;;18.48;10.85;;;;;;;3.55;100.00;100322.09;5090806;28;20539;-67
2020/12/06 01:36:38;;;;;;;26.90;12.57;;;;;;;3.53;100.00;100324.19;5090650;28;20032;-64
2020/12/06 01:39:03;;;;;;;17.08;10.90;;;;;;;3.51;100.00;100331.66;5090840;28;20084;-66
2020/12/06 01:41:29;;;;;;;18.80;12.15;;;;;;;3.48;100.00;100326.69;5090734;28;20390;-67
2020/12/06 01:43:56;;;;;;;20.35;11.73;;;;;;;3.48;100.00;100326.69;5090501;28;20047;-67
2020/12/06 01:46:23;;;;;;;19.55;12.38;;;;;;;3.46;100.00;100329.56;5090671;28;20439;-67
2020/12/06 01:48:50;;;;;;;23.23;12.55;;;;;;;3.47;100.00;100335.78;5090759;28;20462;-63
2020/12/06 01:51:17;;;;;;;20.40;12.32;;;;;;;3.43;100.00;100345.34;5090604;28;20036;-67
2020/12/06 01:53:45;;;;;;;24.42;12.50;;;;;;;3.42;100.00;100343.69;5090553;28;20115;-65
2020/12/06 01:56:10;;;;;;;18.77;11.77;;;;;;;3.42;100.00;100343.69;5093221;28;20089;-67
2020/12/06 01:58:36;;;;;;;18.40;11.85;;;;;;;3.39;100.00;100344.13;5094353;28;20036;-65
2020/12/06 02:01:02;;;;;;;17.92;11.27;;;;;;;3.38;100.00;100343.28;5094378;28;20048;-67
2020/12/06 02:03:28;;;;;;;20.05;11.95;;;;;;;3.36;100.00;100344.53;5094424;28;20133;-64
2020/12/06 02:05:53;;;;;;;20.35;12.48;;;;;;;3.35;100.00;100353.66;5094468;28;20036;-68
2020/12/06 02:08:19;;;;;;;23.80;12.32;;;;;;;3.31;100.00;100353.25;5094206;28;20359;-65
2020/12/06 02:10:44;;;;;;;20.90;12.48;;;;;;;3.26;100.00;100356.56;5092872;28;20127;-68
2020/12/06 02:13:10;;;;;;;19.02;12.60;;;;;;;3.24;100.00;100353.25;5094357;28;20032;-66
2020/12/06 02:15:54;;;;;;;20.75;12.63;;;;;;;3.23;100.00;100351.56;5094615;28;20538;-65
2020/12/06 02:18:20;;;;;;;23.20;12.90;;;;;;;3.22;100.00;100358.00;5093949;28;20040;-66
2020/12/06 02:20:46;;;;;;;24.50;13.63;;;;;;;3.21;100.00;100358.22;5094003;28;20166;-67
2020/12/06 02:23:12;;;;;;;21.67;13.05;;;;;;;3.19;100.00;100355.72;5092654;28;20044;-67
2020/12/06 02:25:39;;;;;;;22.48;13.30;;;;;;;3.19;100.00;100361.13;5093968;28;20040;-63
2020/12/06 02:28:05;;;;;;;27.60;13.55;;;;;;;3.18;100.00;100364.88;5092147;28;20182;-66
2020/12/06 02:30:32;;;;;;;21.10;13.15;;;;;;;3.18;100.00;100364.88;5094013;28;20181;-67
2020/12/06 02:32:57;;;;;;;24.42;13.48;;;;;;;3.17;100.00;100365.91;5093802;28;20097;-65
2020/12/06 02:35:23;;;;;;;26.13;14.00;;;;;;;3.17;100.00;100363.22;5093864;28;20485;-64
2020/12/06 02:37:49;;;;;;;23.17;14.85;;;;;;;3.16;100.00;100366.94;5093675;28;20487;-66
2020/12/06 02:40:15;;;;;;;30.42;13.98;;;;;;;3.15;100.00;100361.75;5093828;28;20134;-65
2020/12/06 02:42:41;;;;;;;26.35;14.65;;;;;;;3.14;100.00;100362.78;5093904;28;20174;-68
2020/12/06 02:45:07;;;;;;;26.38;13.82;;;;;;;3.13;100.00;100361.97;5093697;28;20111;-65
2020/12/06 02:47:32;;;;;;;24.58;14.52;;;;;;;3.12;100.00;100367.53;5093481;28;20119;-66
2020/12/06 02:50:04;;;;;;;27.65;14.20;;;;;;;3.12;100.00;100365.66;5093655;28;20043;-65
2020/12/06 02:52:29;;;;;;;23.73;14.40;;;;;;;3.12;100.00;100362.97;5093355;28;20075;-67
2020/12/06 02:54:55;;;;;;;25.17;14.70;;;;;;;3.13;100.00;100370.06;5093532;28;20078;-68
2020/12/06 02:57:21;;;;;;;28.85;14.52;;;;;;;3.12;100.00;100373.75;5093363;28;20044;-67
2020/12/06 02:59:46;;;;;;;24.42;14.30;;;;;;;3.12;100.00;100365.66;5093350;28;20039;-67
2020/12/06 03:02:12;;;;;;;21.70;13.77;;;;;;;3.11;100.00;100368.56;5093194;28;20040;-66
2020/12/06 03:04:37;;;;;;;30.92;15.35;;;;;;;3.10;100.00;100367.75;5093306;28;20079;-66
2020/12/06 03:07:03;;;;;;;23.83;14.50;;;;;;;3.11;100.00;100379.38;5092710;28;20040;-66
2020/12/06 03:09:29;;;;;;;26.05;15.18;;;;;;;3.10;100.00;100372.31;5093145;28;20092;-66
2020/12/06 03:11:54;;;;;;;26.50;14.75;;;;;;;3.11;100.00;100374.78;5093509;28;20036;-69
2020/12/06 03:14:20;;;;;;;27.30;14.05;;;;;;;3.11;100.00;100377.50;5093130;28;20047;-66
2020/12/06 03:16:46;;;;;;;26.45;15.20;;;;;;;3.14;100.00;100378.97;5092772;28;20079;-67
2020/12/06 03:19:11;;;;;;;28.33;15.80;;;;;;;3.17;100.00;100384.78;5093074;28;20047;-64
2020/12/06 03:21:37;;;;;;;32.22;15.02;;;;;;;3.17;100.00;100382.09;5092893;28;20063;-66
2020/12/06 03:24:03;;;;;;;24.73;14.43;;;;;;;3.18;100.00;100391.03;5092764;28;20089;-65
2020/12/06 03:26:28;;;;;;;27.60;14.25;;;;;;;3.15;100.00;100377.94;5092565;28;20067;-66
2020/12/06 03:28:54;;;;;;;25.00;14.68;;;;;;;3.13;100.00;100372.75;5091565;28;20048;-66
2020/12/06 03:31:19;;;;;;;32.47;15.80;;;;;;;3.12;100.00;100381.03;5091311;28;20096;-63
2020/12/06 03:33:45;;;;;;;28.80;15.43;;;;;;;3.11;100.00;100374.78;5092655;28;20042;-67
2020/12/06 03:36:11;;;;;;;26.17;15.77;;;;;;;3.10;100.00;100383.09;5092819;28;20063;-64
2020/12/06 03:38:36;;;;;;;27.35;14.82;;;;;;;3.11;100.00;100385.59;5092595;28;20055;-65
2020/12/06 03:41:02;;;;;;;31.70;17.10;;;;;;;3.13;100.00;100388.94;5092591;28;20131;-67
2020/12/06 03:43:28;;;;;;;27.75;17.38;;;;;;;3.15;100.00;100389.56;5092398;28;20037;-64
2020/12/06 03:45:53;;;;;;;29.70;16.10;;;;;;;3.17;100.00;100390.19;5092549;28;20553;-65
2020/12/06 03:48:19;;;;;;;29.83;16.95;;;;;;;3.19;100.00;100398.91;5092366;28;20032;-65
2020/12/06 03:50:45;;;;;;;34.50;17.33;;;;;;;3.20;100.00;100397.03;5092377;28;20063;-67
2020/12/06 03:53:10;;;;;;;29.85;16.50;;;;;;;3.22;100.00;100403.06;5092326;28;20165;-67
2020/12/06 03:55:36;;;;;;;30.52;15.88;;;;;;;3.20;100.00;100411.38;5092273;28;20390;-68
2020/12/06 03:58:01;;;;;;;29.23;16.58;;;;;;;3.18;100.00;100405.34;5092047;28;20047;-67
2020/12/06 04:00:27;;;;;;;27.60;16.95;;;;;;;3.18;100.00;100412.59;5092100;28;20032;-65
2020/12/06 04:02:52;;;;;;;30.48;16.15;;;;;;;3.16;100.00;100409.28;5092129;28;20040;-65
2020/12/06 04:05:21;;;;;;;31.50;16.45;;;;;;;3.16;100.00;100399.31;5092075;28;20035;-65
2020/12/06 04:07:50;;;;;;;30.48;17.48;;;;;;;3.18;100.00;100407.22;5091889;28;20531;-64
2020/12/06 04:10:18;;;;;;;31.63;17.50;;;;;;;3.16;100.00;100404.72;5092144;28;20036;-64
2020/12/06 04:12:44;;;;;;;34.40;17.27;;;;;;;3.15;100.00;100403.06;5091835;28;20024;-68
2020/12/06 04:15:10;;;;;;;27.75;16.83;;;;;;;3.15;100.00;100408.47;5091861;28;20459;-64
2020/12/06 04:17:35;;;;;;;33.92;18.95;;;;;;;3.14;100.00;100412.19;5091093;28;20107;-68
2020/12/06 04:20:02;;;;;;;36.92;17.55;;;;;;;3.13;100.00;100415.09;5091794;28;20449;-68
2020/12/06 04:22:27;;;;;;;36.78;18.42;;;;;;;3.11;100.00;100417.97;5091607;28;20039;-63
2020/12/06 04:24:53;;;;;;;33.10;18.98;;;;;;;3.09;100.00;100420.03;5091669;28;20040;-66
2020/12/06 04:27:18;;;;;;;33.83;18.92;;;;;;;3.08;100.00;100423.78;5091506;28;20048;-64
2020/12/06 04:29:44;;;;;;;36.97;19.38;;;;;;;3.08;100.00;100423.78;5091615;28;20810;-67
2020/12/06 04:32:10;;;;;;;34.60;18.98;;;;;;;3.07;100.00;100427.50;5091488;28;20055;-65
2020/12/06 04:34:36;;;;;;;43.05;23.27;;;;;;;3.06;100.00;100428.53;5091533;28;20032;-69
2020/12/06 04:37:06;;;;;;;39.63;21.38;;;;;;;3.09;100.00;100424.59;5091560;28;20036;-66
2020/12/06 04:39:32;;;;;;;41.88;21.58;;;;;;;3.10;100.00;100432.50;5091457;28;20122;-67
2020/12/06 04:42:00;;;;;;;44.08;21.55;;;;;;;3.10;100.00;100432.50;5091328;28;20035;-67
2020/12/06 04:44:26;;;;;;;39.33;20.52;;;;;;;3.14;100.00;100438.34;5091842;28;20040;-67
2020/12/06 04:46:59;;;;;;;43.72;22.75;;;;;;;3.14;100.00;100447.25;5091236;28;20484;-67
2020/12/06 04:49:29;;;;;;;44.88;21.90;;;;;;;3.15;100.00;100440.84;5091602;28;20035;-67
2020/12/06 04:51:56;;;;;;;41.90;22.23;;;;;;;3.15;100.00;100438.13;5091232;28;20042;-65
2020/12/06 04:54:32;;;;;;;41.38;22.92;;;;;;;3.17;100.00;100449.56;5091276;28;20036;-68
2020/12/06 04:57:03;;;;;;;43.58;22.27;;;;;;;3.19;100.00;100446.66;5089837;28;20462;-66
2020/12/06 04:59:29;;;;;;;44.72;23.00;;;;;;;3.19;100.00;100450.19;5091257;28;20035;-63
2020/12/06 05:01:57;;;;;;;46.03;22.85;;;;;;;3.21;100.00;100445.41;5091176;28;20036;-67
2020/12/06 05:04:25;;;;;;;43.72;23.25;;;;;;;3.22;100.00;100446.22;5090981;28;20032;-67
2020/12/06 05:06:53;;;;;;;47.28;24.85;;;;;;;3.24;100.00;100439.59;5089530;28;20413;-66
2020/12/06 05:09:22;;;;;;;47.53;24.75;;;;;;;3.26;100.00;100442.91;5091119;28;20119;-66
2020/12/06 05:11:47;;;;;;;51.40;23.92;;;;;;;3.28;100.00;100448.09;5091167;28;20524;-65
2020/12/06 05:14:13;;;;;;;46.85;22.98;;;;;;;3.29;100.00;100449.75;5090971;28;20042;-66
2020/12/06 05:16:40;;;;;;;42.60;22.15;;;;;;;3.27;100.00;100449.97;5090908;28;20500;-64
2020/12/06 05:19:12;;;;;;;43.65;22.10;;;;;;;3.26;100.00;100453.72;5091040;28;20054;-65
2020/12/06 05:21:40;;;;;;;41.20;21.48;;;;;;;3.25;100.00;100462.00;5091283;28;20101;-69
2020/12/06 05:24:06;;;;;;;44.25;23.67;;;;;;;3.23;100.00;100464.91;5090743;28;20123;-68
2020/12/06 05:26:32;;;;;;;42.90;22.63;;;;;;;3.22;100.00;100468.66;5090737;28;20458;-64
2020/12/06 05:28:59;;;;;;;49.42;23.08;;;;;;;3.19;100.00;100466.38;5091328;28;20045;-65
2020/12/06 05:31:26;;;;;;;43.08;20.85;;;;;;;3.18;100.00;100467.41;5095067;28;20047;-66
2020/12/06 05:33:52;;;;;;;40.17;21.67;;;;;;;3.15;100.00;100473.22;5094911;28;20474;-64
2020/12/06 05:36:18;;;;;;;51.00;23.02;;;;;;;3.15;100.00;100466.97;5095032;28;20093;-68
2020/12/06 05:38:43;;;;;;;44.85;22.00;;;;;;;3.15;100.00;100472.38;5094870;28;20044;-68
2020/12/06 05:41:10;;;;;;;53.15;22.92;;;;;;;3.14;100.00;100476.94;5094852;28;20036;-65
2020/12/06 05:43:37;;;;;;;48.88;22.92;;;;;;;3.17;100.00;100464.91;5094772;28;20042;-66
2020/12/06 05:46:10;;;;;;;50.72;25.35;;;;;;;3.19;100.00;100465.53;5094778;28;20067;-67
2020/12/06 05:48:37;;;;;;;50.75;24.75;;;;;;;3.20;100.00;100465.34;5094694;28;20040;-66
2020/12/06 05:51:04;;;;;;;52.85;25.35;;;;;;;3.20;100.00;100465.34;5094761;28;20044;-64
2020/12/06 05:53:30;;;;;;;49.72;25.98;;;;;;;3.19;100.00;100474.47;5094640;28;20038;-63
2020/12/06 05:56:11;;;;;;;47.85;23.85;;;;;;;3.18;100.00;100474.66;5094707;28;20120;-65
2020/12/06 05:58:40;;;;;;;48.45;23.70;;;;;;;3.17;100.00;100473.84;5094517;28;20040;-66
2020/12/06 06:01:05;;;;;;;47.97;23.65;;;;;;;3.14;100.00;100466.16;5093250;28;20470;-67
2020/12/06 06:03:35;;;;;;;57.63;24.48;;;;;;;3.13;100.00;100472.59;5094271;28;20044;-67
2020/12/06 06:06:07;;;;;;;47.30;23.50;;;;;;;3.12;100.00;100467.38;5094467;28;20081;-67
2020/12/06 06:08:36;;;;;;;46.50;22.92;;;;;;;3.11;100.00;100474.63;5094324;28;20443;-66
2020/12/06 06:11:20;;;;;;;53.00;25.38;;;;;;;3.10;100.00;100480.22;5094598;28;20090;-64
2020/12/06 06:13:57;;;;;;;47.70;23.63;;;;;;;3.10;100.00;100481.06;5094708;28;20108;-67
2020/12/06 06:16:25;;;;;;;40.08;22.23;;;;;;;3.07;100.00;100478.78;5094263;28;20032;-64
2020/12/06 06:18:52;;;;;;;45.67;23.98;;;;;;;3.03;100.00;100475.66;5094373;28;20027;-67
2020/12/06 06:21:22;;;;;;;53.58;23.58;;;;;;;2.99;100.00;100474.41;5094081;28;20051;-66
2020/12/06 06:23:49;;;;;;;45.53;23.55;;;;;;;2.95;100.00;100483.94;5093915;28;20036;-67
2020/12/06 06:26:18;;;;;;;51.80;24.63;;;;;;;2.91;100.00;100481.81;5093946;28;20771;-66
2020/12/06 06:28:45;;;;;;;50.92;23.67;;;;;;;2.88;100.00;100487.63;5093772;28;20051;-65
2020/12/06 06:31:16;;;;;;;53.47;23.02;;;;;;;2.81;100.00;100484.91;5092578;28;20409;-67
2020/12/06 06:33:41;;;;;;;50.05;22.92;;;;;;;2.78;100.00;100492.53;5093959;28;20028;-65
2020/12/06 06:36:10;;;;;;;48.30;23.42;;;;;;;2.75;100.00;100487.53;5094019;28;20432;-68
2020/12/06 06:38:42;;;;;;;45.67;23.27;;;;;;;2.71;100.00;100490.66;5093675;28;20096;-64
2020/12/06 06:41:08;;;;;;;53.45;23.67;;;;;;;2.69;100.00;100494.59;5093298;28;20448;-66
2020/12/06 06:43:36;;;;;;;54.08;24.75;;;;;;;2.65;100.00;100494.16;5093821;28;20410;-66
2020/12/06 06:46:21;;;;;;;50.05;23.30;;;;;;;2.63;100.00;100507.00;5092283;28;20387;-64
2020/12/06 06:48:48;;;;;;;47.38;22.65;;;;;;;2.62;100.00;100509.91;5093876;28;20075;-66
2020/12/06 06:51:19;;;;;;;53.45;24.52;;;;;;;2.60;100.00;100504.72;5093601;28;20040;-68
2020/12/06 06:53:45;;;;;;;53.85;23.25;;;;;;;2.61;100.00;100513.63;5093499;28;20501;-64
2020/12/06 06:56:12;;;;;;;49.30;23.63;;;;;;;2.62;100.00;100509.91;5093563;28;20473;-69
2020/12/06 06:58:38;;;;;;;52.40;24.45;;;;;;;2.65;100.00;100510.34;5093498;28;20537;-67
2020/12/06 07:01:21;;;;;;;49.33;23.52;;;;;;;2.69;100.00;100516.97;5093190;28;20043;-67
2020/12/06 07:03:52;;;;;;;51.55;23.58;;;;;;;2.72;100.00;100516.59;5093164;28;20032;-67
2020/12/06 07:06:50;;;;;;;57.65;25.92;;;;;;;2.80;100.00;100521.00;5093382;28;20052;-66
2020/12/06 07:09:24;;;;;;;45.10;22.00;;;;;;;2.86;100.00;100516.66;5093212;28;20436;-65
2020/12/06 07:11:52;;;;;;;52.33;26.17;;;;;;;2.90;100.00;100515.22;5093119;28;20036;-73
2020/12/06 07:14:21;;;;;;;51.15;23.88;;;;;;;2.91;100.00;100525.81;5093006;28;20035;-67
2020/12/06 07:16:47;;;;;;;52.00;23.50;;;;;;;2.91;100.00;100520.41;5093213;28;20028;-66
2020/12/06 07:19:13;;;;;;;50.55;25.17;;;;;;;2.90;100.00;100523.31;5093024;28;20058;-66
2020/12/06 07:21:38;;;;;;;50.25;23.30;;;;;;;2.89;100.00;100525.19;5092987;28;20043;-66
2020/12/06 07:24:05;;;;;;;47.75;23.50;;;;;;;2.87;100.00;100534.50;5093015;28;20120;-65
2020/12/06 07:26:31;;;;;;;46.80;23.52;;;;;;;2.86;100.00;100530.16;5092564;28;20050;-66
2020/12/06 07:28:57;;;;;;;49.90;23.58;;;;;;;2.83;100.00;100527.84;5092762;28;20036;-65
2020/12/06 07:31:24;;;;;;;51.55;24.38;;;;;;;2.80;100.00;100531.78;5092791;28;20080;-66
2020/12/06 07:33:50;;;;;;;47.33;23.02;;;;;;;2.80;100.00;100529.09;5092744;28;20028;-67
2020/12/06 07:36:16;;;;;;;48.28;24.20;;;;;;;2.79;100.00;100540.06;5092756;28;20036;-64
2020/12/06 07:38:42;;;;;;;50.92;25.15;;;;;;;2.76;100.00;100540.44;5092533;28;20085;-65
2020/12/06 07:41:08;;;;;;;55.63;25.65;;;;;;;2.73;100.00;100547.91;5092679;28;20042;-66
2020/12/06 07:43:34;;;;;;;58.38;26.30;;;;;;;2.71;100.00;100549.97;5092388;28;20448;-65
2020/12/06 07:46:13;;;;;;;52.70;25.48;;;;;;;2.70;100.00;100545.63;5092600;28;20512;-66
2020/12/06 07:48:39;;;;;;;51.22;24.60;;;;;;;2.70;100.00;100550.16;5092440;28;20036;-66
2020/12/06 07:51:04;;;;;;;45.20;23.50;;;;;;;2.68;100.00;100544.97;5092415;28;20048;-66
2020/12/06 07:53:45;;;;;;;50.35;24.02;;;;;;;2.66;100.00;100549.75;5091252;28;20117;-66
2020/12/06 07:56:11;;;;;;;52.42;23.63;;;;;;;2.65;100.00;100545.38;5092364;28;20043;-64
2020/12/06 07:58:45;;;;;;;47.47;22.15;;;;;;;2.65;100.00;100548.09;5092345;28;20032;-63
2020/12/06 08:01:13;;;;;;;48.88;23.67;;;;;;;2.64;100.00;100546.41;5092307;28;20031;-68
2020/12/06 08:03:39;;;;;;;50.88;23.75;;;;;;;2.64;100.00;100556.38;5092048;28;20046;-65
2020/12/06 08:06:06;;;;;;;50.40;23.85;;;;;;;2.65;100.00;100558.03;5092317;28;20032;-64
2020/12/06 08:08:34;;;;;;;50.65;23.70;;;;;;;2.62;100.00;100553.88;5091873;28;20082;-66
2020/12/06 08:11:02;;;;;;;47.35;23.25;;;;;;;2.62;100.00;100559.25;5092070;28;20470;-65
2020/12/06 08:13:28;;;;;;;50.05;24.10;;;;;;;2.63;100.00;100558.22;5092114;28;20036;-64
2020/12/06 08:16:05;;;;;;;47.83;23.83;;;;;;;2.63;100.00;100555.53;5091882;28;20047;-65
2020/12/06 08:18:30;;;;;;;46.67;22.90;;;;;;;2.64;100.00;100562.59;5091756;28;20065;-65
2020/12/06 08:20:56;;;;;;;48.35;22.63;;;;;;;2.64;100.00;100562.59;5092261;28;20044;-66
2020/12/06 08:23:36;;;;;;;52.80;23.85;;;;;;;2.65;100.00;100568.81;5091807;28;20074;-66
2020/12/06 08:26:02;;;;;;;51.70;23.17;;;;;;;2.67;100.00;100567.59;5091742;28;20048;-65
2020/12/06 08:28:29;;;;;;;45.05;22.00;;;;;;;2.68;100.00;100565.72;5091365;28;20052;-65
2020/12/06 08:30:55;;;;;;;52.00;24.23;;;;;;;2.70;100.00;100575.28;5091749;28;20042;-64
2020/12/06 08:33:25;;;;;;;49.03;24.65;;;;;;;2.75;100.00;100573.84;5091564;28;20040;-67
2020/12/06 08:35:52;;;;;;;48.78;23.90;;;;;;;2.78;100.00;100568.91;5091558;28;20064;-67
2020/12/06 08:38:22;;;;;;;54.30;25.27;;;;;;;2.84;100.00;100570.81;5091485;28;20032;-68
2020/12/06 08:40:59;;;;;;;49.55;24.83;;;;;;;2.90;100.00;100577.25;5091749;28;20032;-65
2020/12/06 08:43:43;;;;;;;49.35;23.05;;;;;;;2.94;100.00;100573.13;5091256;28;20470;-66
2020/12/06 08:46:10;;;;;;;47.35;22.90;;;;;;;2.96;100.00;100571.09;5091472;28;20110;-66
2020/12/06 08:48:36;;;;;;;45.72;22.50;;;;;;;2.99;100.00;100576.06;5091418;28;20112;-67
2020/12/06 08:51:02;;;;;;;45.00;22.60;;;;;;;3.00;100.00;100583.13;5091395;28;20040;-64
2020/12/06 08:53:44;;;;;;;49.75;24.50;;;;;;;3.03;100.00;100575.47;5091301;28;20035;-66
2020/12/06 08:56:34;;;;;;;49.97;22.13;;;;;;;3.06;100.00;100579.63;5091391;28;20031;-65
2020/12/06 08:59:26;;;;;;;47.10;22.73;;;;;;;3.10;100.00;100578.19;5091308;28;20066;-67
2020/12/06 09:01:52;;;;;;;49.42;22.65;;;;;;;3.14;100.00;100587.56;5087221;28;20055;-69
2020/12/06 09:04:18;;;;;;;50.13;24.23;;;;;;;3.17;100.00;100578.25;5090783;28;20165;-67
2020/12/06 09:06:44;;;;;;;43.67;23.40;;;;;;;3.21;100.00;100579.50;5090997;28;20044;-66
2020/12/06 09:09:10;;;;;;;46.45;23.17;;;;;;;3.26;100.00;100587.81;5091185;28;20039;-67
2020/12/06 09:11:36;;;;;;;49.25;22.98;;;;;;;3.29;100.00;100582.00;5089773;28;20036;-68
2020/12/06 09:14:02;;;;;;;47.90;22.98;;;;;;;3.32;100.00;100579.78;5091148;28;20123;-67
2020/12/06 09:16:27;;;;;;;48.08;23.63;;;;;;;3.37;100.00;100583.72;5090916;28;20111;-65
2020/12/06 09:18:53;;;;;;;44.30;24.63;;;;;;;3.41;100.00;100588.50;5091457;28;20036;-70
2020/12/06 09:21:20;;;;;;;49.20;24.88;;;;;;;3.44;100.00;100584.56;5091137;28;20047;-66
2020/12/06 09:23:46;;;;;;;49.75;23.23;;;;;;;3.45;100.00;100581.66;5090847;28;20032;-66
2020/12/06 09:26:12;;;;;;;40.90;22.13;;;;;;;3.48;100.00;100585.84;5090915;28;20101;-67
2020/12/06 09:28:37;;;;;;;40.22;21.75;;;;;;;3.51;100.00;100585.44;5090678;28;20085;-65
2020/12/06 09:31:03;;;;;;;44.92;22.92;;;;;;;3.54;100.00;100582.34;5090993;28;20043;-66
2020/12/06 09:33:29;;;;;;;41.70;23.55;;;;;;;3.57;100.00;100579.22;5090875;28;20063;-69
2020/12/06 09:35:54;;;;;;;45.63;22.00;;;;;;;3.60;100.00;100581.50;5089612;28;20373;-66
2020/12/06 09:38:21;;;;;;;46.45;21.35;;;;;;;3.63;100.00;100579.22;5090841;28;20036;-68
2020/12/06 09:40:46;;;;;;;40.63;20.90;;;;;;;3.68;100.00;100578.66;5090662;28;20051;-65
2020/12/06 09:43:12;;;;;;;44.90;20.90;;;;;;;3.72;100.00;100585.31;5090566;28;20029;-67
2020/12/06 09:45:40;;;;;;;41.25;21.98;;;;;;;3.76;100.00;100586.56;5090890;28;20125;-63
2020/12/06 09:48:06;;;;;;;45.03;22.02;;;;;;;3.82;100.00;100593.84;5089300;28;20467;-65
2020/12/06 09:50:31;;;;;;;37.70;21.05;;;;;;;3.89;100.00;100589.28;5090656;28;20043;-65
2020/12/06 09:52:57;;;;;;;34.45;20.27;;;;;;;3.96;100.00;100589.28;5090463;28;20158;-64
2020/12/06 09:55:22;;;;;;;41.80;20.45;;;;;;;4.01;100.00;100591.41;5090686;28;20040;-65
2020/12/06 09:57:48;;;;;;;36.35;20.33;;;;;;;4.07;100.00;100591.41;5089203;28;20036;-65
2020/12/06 10:00:14;;;;;;;36.75;18.10;;;;;;;4.12;100.00;100588.06;5090580;28;20059;-68
2020/12/06 10:02:39;;;;;;;32.58;19.42;;;;;;;4.18;100.00;100592.66;5090513;28;20036;-68
2020/12/06 10:05:05;;;;;;;35.42;19.00;;;;;;;4.24;100.00;100597.25;5090942;28;20039;-71
2020/12/06 10:07:31;;;;;;;31.60;18.00;;;;;;;4.30;100.00;100601.81;5090317;28;20062;-68
2020/12/06 10:09:56;;;;;;;34.03;18.95;;;;;;;4.37;100.00;100605.38;5090576;28;20032;-68
2020/12/06 10:12:22;;;;;;;33.92;18.85;;;;;;;4.41;100.00;100606.59;5090442;28;20541;-71
2020/12/06 10:14:47;;;;;;;31.35;18.45;;;;;;;4.48;100.00;100598.47;5090445;28;20043;-69
2020/12/06 10:17:13;;;;;;;31.17;17.77;;;;;;;4.54;100.00;100601.22;5092776;28;20043;-67
2020/12/06 10:19:39;;;;;;;29.98;17.77;;;;;;;4.61;100.00;100608.47;5094246;28;20035;-67
2020/12/06 10:22:04;;;;;;;29.15;16.77;;;;;;;4.69;100.00;100602.88;5094031;28;20040;-65
2020/12/06 10:24:30;;;;;;;29.80;16.33;;;;;;;4.77;100.00;100602.63;5093984;28;20040;-66
2020/12/06 10:26:57;;;;;;;29.17;15.63;;;;;;;4.85;100.00;100600.53;5093868;28;20052;-66
2020/12/06 10:29:23;;;;;;;28.52;15.63;;;;;;;4.96;100.00;100599.06;5094039;28;20486;-67
2020/12/06 10:31:53;;;;;;;30.88;17.80;;;;;;;5.04;100.00;100604.25;5093927;28;20509;-65
2020/12/06 10:34:20;;;;;;;30.10;17.92;;;;;;;5.15;100.00;100611.72;5093817;28;20127;-67
2020/12/06 10:36:59;;;;;;;39.17;17.38;;;;;;;5.26;100.00;100612.13;5093908;28;20458;-63
2020/12/06 10:39:26;;;;;;;30.10;17.13;;;;;;;5.31;100.00;100610.41;5093756;28;20035;-64
2020/12/06 10:41:53;;;;;;;25.88;15.98;;;;;;;5.40;100.00;100611.03;5093684;28;20040;-66
2020/12/06 10:44:19;;;;;;;29.38;16.55;;;;;;;5.47;100.00;100609.13;5093776;28;20040;-69
2020/12/06 10:46:45;;;;;;;25.15;16.35;;;;;;;5.52;100.00;100612.00;5093553;28;20040;-69
2020/12/06 10:49:12;;;;;;;25.55;15.82;;;;;;;5.59;100.00;100612.00;5092271;28;20127;-67
2020/12/06 10:51:39;;;;;;;25.15;14.52;;;;;;;5.67;100.00;100609.84;5093546;28;20043;-67
2020/12/06 10:54:05;;;;;;;24.23;14.85;;;;;;;5.78;100.00;100604.81;5093602;28;20104;-67
2020/12/06 10:56:31;;;;;;;21.23;13.90;;;;;;;5.84;100.00;100606.66;5093552;28;20122;-64
2020/12/06 10:58:57;;;;;;;24.17;13.68;;;;;;;5.93;100.00;100602.69;5093433;28;20446;-64
2020/12/06 11:01:26;;;;;;;25.23;14.02;;;;;;;6.01;100.00;100605.13;5093534;28;20047;-64
2020/12/06 11:03:52;;;;;;;24.38;13.98;;;;;;;6.09;100.00;100594.03;5093121;28;20036;-67
2020/12/06 11:06:25;;;;;;;22.67;12.85;;;;;;;6.16;100.00;100594.81;5091858;28;20085;-65
2020/12/06 11:08:51;;;;;;;24.08;12.55;;;;;;;6.21;100.00;100589.53;5093101;28;20047;-66
2020/12/06 11:11:19;;;;;;;25.73;13.52;;;;;;;6.28;100.00;100582.22;5093109;28;20040;-63